sensor_id;sensor_type;location;lat;lon;timestamp;P1;durP1;ratioP1;P2;durP2;ratioP2
38843;SDS011;24596;48.080;8.362;2022-12-13T00:01:10;17.30;;;8.33;;
38843;SDS011;24596;48.080;8.362;2022-12-13T00:03:36;16.43;;;7.20;;
38843;SDS011;24596;48.080;8.362;2022-12-13T00:06:03;17.70;;;7.53;;
38843;SDS011;24596;48.080;8.362;2022-12-13T00:08:28;15.93;;;7.10;;
38843;SDS011;24596;48.080;8.362;2022-12-13T00:10:58;14.83;;;6.80;;
38843;SDS011;24596;48.080;8.362;2022-12-13T00:13:29;15.23;;;7.63;;
38843;SDS011;24596;48.080;8.362;2022-12-13T00:16:02;15.83;;;6.97;;
38843;SDS011;24596;48.080;8.362;2022-12-13T00:18:43;12.50;;;6.45;;
38843;SDS011;24596;48.080;8.362;2022-12-13T00:21:12;17.70;;;7.30;;
38843;SDS011;24596;48.080;8.362;2022-12-13T00:23:38;14.27;;;7.07;;
38843;SDS011;24596;48.080;8.362;2022-12-13T00:26:08;16.83;;;7.67;;
38843;SDS011;24596;48.080;8.362;2022-12-13T00:28:34;14.80;;;6.87;;
38843;SDS011;24596;48.080;8.362;2022-12-13T00:31:00;17.10;;;8.30;;
38843;SDS011;24596;48.080;8.362;2022-12-13T00:33:26;15.30;;;7.03;;
38843;SDS011;24596;48.080;8.362;2022-12-13T00:35:51;38.30;;;11.63;;
38843;SDS011;24596;48.080;8.362;2022-12-13T00:38:16;31.87;;;9.33;;
38843;SDS011;24596;48.080;8.362;2022-12-13T00:40:42;17.10;;;7.57;;
38843;SDS011;24596;48.080;8.362;2022-12-13T00:43:07;13.63;;;6.87;;
38843;SDS011;24596;48.080;8.362;2022-12-13T00:45:33;21.87;;;7.83;;
38843;SDS011;24596;48.080;8.362;2022-12-13T00:47:58;16.10;;;6.47;;
38843;SDS011;24596;48.080;8.362;2022-12-13T00:50:24;14.67;;;6.67;;
38843;SDS011;24596;48.080;8.362;2022-12-13T00:52:49;14.87;;;6.70;;
38843;SDS011;24596;48.080;8.362;2022-12-13T00:55:15;15.17;;;7.33;;
38843;SDS011;24596;48.080;8.362;2022-12-13T00:57:40;17.47;;;6.93;;
38843;SDS011;24596;48.080;8.362;2022-12-13T01:00:05;16.27;;;6.90;;
38843;SDS011;24596;48.080;8.362;2022-12-13T01:02:31;19.17;;;7.27;;
38843;SDS011;24596;48.080;8.362;2022-12-13T01:04:56;13.67;;;6.43;;
38843;SDS011;24596;48.080;8.362;2022-12-13T01:07:21;13.87;;;6.13;;
38843;SDS011;24596;48.080;8.362;2022-12-13T01:09:47;15.73;;;7.00;;
38843;SDS011;24596;48.080;8.362;2022-12-13T01:12:12;16.83;;;7.23;;
38843;SDS011;24596;48.080;8.362;2022-12-13T01:14:38;17.10;;;7.70;;
38843;SDS011;24596;48.080;8.362;2022-12-13T01:17:04;17.63;;;7.43;;
38843;SDS011;24596;48.080;8.362;2022-12-13T01:19:29;15.60;;;7.17;;
38843;SDS011;24596;48.080;8.362;2022-12-13T01:21:58;15.57;;;7.20;;
38843;SDS011;24596;48.080;8.362;2022-12-13T01:24:24;16.80;;;6.57;;
38843;SDS011;24596;48.080;8.362;2022-12-13T01:26:51;14.43;;;7.00;;
38843;SDS011;24596;48.080;8.362;2022-12-13T01:29:16;19.83;;;6.97;;
38843;SDS011;24596;48.080;8.362;2022-12-13T01:31:42;17.07;;;6.70;;
38843;SDS011;24596;48.080;8.362;2022-12-13T01:34:08;18.00;;;7.07;;
38843;SDS011;24596;48.080;8.362;2022-12-13T01:36:37;16.87;;;6.73;;
38843;SDS011;24596;48.080;8.362;2022-12-13T01:39:03;15.67;;;6.90;;
38843;SDS011;24596;48.080;8.362;2022-12-13T01:41:28;17.07;;;7.33;;
38843;SDS011;24596;48.080;8.362;2022-12-13T01:43:56;19.03;;;6.53;;
38843;SDS011;24596;48.080;8.362;2022-12-13T01:46:21;20.47;;;7.77;;
38843;SDS011;24596;48.080;8.362;2022-12-13T01:48:58;17.40;;;6.83;;
38843;SDS011;24596;48.080;8.362;2022-12-13T01:51:33;16.13;;;6.07;;
38843;SDS011;24596;48.080;8.362;2022-12-13T01:54:00;15.23;;;6.63;;
38843;SDS011;24596;48.080;8.362;2022-12-13T01:56:29;15.03;;;6.43;;
38843;SDS011;24596;48.080;8.362;2022-12-13T01:58:55;17.40;;;7.17;;
38843;SDS011;24596;48.080;8.362;2022-12-13T02:01:21;14.27;;;7.57;;
38843;SDS011;24596;48.080;8.362;2022-12-13T02:03:47;93.30;;;29.97;;
38843;SDS011;24596;48.080;8.362;2022-12-13T02:06:16;40.00;;;14.90;;
38843;SDS011;24596;48.080;8.362;2022-12-13T02:08:42;22.43;;;8.53;;
38843;SDS011;24596;48.080;8.362;2022-12-13T02:11:08;18.07;;;7.40;;
38843;SDS011;24596;48.080;8.362;2022-12-13T02:13:34;15.90;;;7.13;;
38843;SDS011;24596;48.080;8.362;2022-12-13T02:16:13;15.10;;;6.93;;
38843;SDS011;24596;48.080;8.362;2022-12-13T02:18:53;17.30;;;7.10;;
38843;SDS011;24596;48.080;8.362;2022-12-13T02:21:23;16.10;;;6.63;;
38843;SDS011;24596;48.080;8.362;2022-12-13T02:29:02;39.15;;;12.25;;
38843;SDS011;24596;48.080;8.362;2022-12-13T02:39:29;16.57;;;7.10;;
38843;SDS011;24596;48.080;8.362;2022-12-13T02:42:03;16.80;;;7.20;;
38843;SDS011;24596;48.080;8.362;2022-12-13T02:44:40;17.30;;;7.47;;
38843;SDS011;24596;48.080;8.362;2022-12-13T02:47:14;25.37;;;10.23;;
38843;SDS011;24596;48.080;8.362;2022-12-13T02:49:42;23.50;;;8.77;;
38843;SDS011;24596;48.080;8.362;2022-12-13T02:52:09;18.23;;;6.50;;
38843;SDS011;24596;48.080;8.362;2022-12-13T02:54:36;14.20;;;5.70;;
38843;SDS011;24596;48.080;8.362;2022-12-13T02:57:02;14.17;;;6.00;;
38843;SDS011;24596;48.080;8.362;2022-12-13T02:59:29;13.33;;;5.80;;
38843;SDS011;24596;48.080;8.362;2022-12-13T03:04:37;13.20;;;6.53;;
38843;SDS011;24596;48.080;8.362;2022-12-13T03:07:28;11.13;;;5.73;;
38843;SDS011;24596;48.080;8.362;2022-12-13T03:10:16;12.77;;;5.83;;
38843;SDS011;24596;48.080;8.362;2022-12-13T03:13:21;15.07;;;6.20;;
38843;SDS011;24596;48.080;8.362;2022-12-13T03:15:56;14.40;;;5.93;;
38843;SDS011;24596;48.080;8.362;2022-12-13T03:18:22;15.93;;;6.50;;
38843;SDS011;24596;48.080;8.362;2022-12-13T03:20:50;13.47;;;6.03;;
38843;SDS011;24596;48.080;8.362;2022-12-13T03:23:16;11.97;;;6.13;;
38843;SDS011;24596;48.080;8.362;2022-12-13T03:25:41;15.67;;;6.60;;
38843;SDS011;24596;48.080;8.362;2022-12-13T03:28:08;15.80;;;7.03;;
38843;SDS011;24596;48.080;8.362;2022-12-13T03:30:33;12.90;;;5.90;;
38843;SDS011;24596;48.080;8.362;2022-12-13T03:32:59;14.80;;;5.80;;
38843;SDS011;24596;48.080;8.362;2022-12-13T03:35:25;11.63;;;6.03;;
38843;SDS011;24596;48.080;8.362;2022-12-13T03:37:50;17.43;;;6.40;;
38843;SDS011;24596;48.080;8.362;2022-12-13T03:40:16;13.00;;;6.30;;
38843;SDS011;24596;48.080;8.362;2022-12-13T03:42:41;16.33;;;6.53;;
38843;SDS011;24596;48.080;8.362;2022-12-13T03:45:07;15.50;;;6.90;;
38843;SDS011;24596;48.080;8.362;2022-12-13T03:47:32;11.50;;;5.90;;
38843;SDS011;24596;48.080;8.362;2022-12-13T03:49:57;16.37;;;6.33;;
38843;SDS011;24596;48.080;8.362;2022-12-13T03:52:23;14.07;;;6.40;;
38843;SDS011;24596;48.080;8.362;2022-12-13T03:54:48;15.17;;;7.03;;
38843;SDS011;24596;48.080;8.362;2022-12-13T03:57:13;16.13;;;6.37;;
38843;SDS011;24596;48.080;8.362;2022-12-13T03:59:39;20.23;;;9.80;;
38843;SDS011;24596;48.080;8.362;2022-12-13T04:02:04;18.83;;;8.90;;
38843;SDS011;24596;48.080;8.362;2022-12-13T04:04:30;20.17;;;8.67;;
38843;SDS011;24596;48.080;8.362;2022-12-13T04:06:55;30.80;;;12.70;;
38843;SDS011;24596;48.080;8.362;2022-12-13T04:09:20;30.43;;;12.83;;
38843;SDS011;24596;48.080;8.362;2022-12-13T04:11:45;37.53;;;14.33;;
38843;SDS011;24596;48.080;8.362;2022-12-13T04:14:30;27.47;;;13.20;;
38843;SDS011;24596;48.080;8.362;2022-12-13T04:16:55;23.43;;;9.53;;
38843;SDS011;24596;48.080;8.362;2022-12-13T04:19:20;19.53;;;8.30;;
38843;SDS011;24596;48.080;8.362;2022-12-13T04:21:45;17.83;;;7.63;;
38843;SDS011;24596;48.080;8.362;2022-12-13T04:24:11;15.70;;;7.17;;
38843;SDS011;24596;48.080;8.362;2022-12-13T04:26:36;22.23;;;8.10;;
38843;SDS011;24596;48.080;8.362;2022-12-13T04:29:01;28.53;;;12.20;;
38843;SDS011;24596;48.080;8.362;2022-12-13T04:31:26;24.87;;;10.03;;
38843;SDS011;24596;48.080;8.362;2022-12-13T04:33:52;40.90;;;17.13;;
38843;SDS011;24596;48.080;8.362;2022-12-13T04:36:17;34.63;;;16.73;;
38843;SDS011;24596;48.080;8.362;2022-12-13T04:38:49;40.77;;;17.83;;
38843;SDS011;24596;48.080;8.362;2022-12-13T04:41:15;30.67;;;13.30;;
38843;SDS011;24596;48.080;8.362;2022-12-13T04:43:41;43.20;;;17.87;;
38843;SDS011;24596;48.080;8.362;2022-12-13T04:46:06;35.17;;;15.90;;
38843;SDS011;24596;48.080;8.362;2022-12-13T04:48:31;36.70;;;15.60;;
38843;SDS011;24596;48.080;8.362;2022-12-13T04:50:57;27.90;;;11.43;;
38843;SDS011;24596;48.080;8.362;2022-12-13T04:53:23;21.53;;;8.83;;
38843;SDS011;24596;48.080;8.362;2022-12-13T04:55:48;21.43;;;8.73;;
38843;SDS011;24596;48.080;8.362;2022-12-13T04:58:14;28.57;;;12.07;;
38843;SDS011;24596;48.080;8.362;2022-12-13T05:00:39;58.03;;;24.20;;
38843;SDS011;24596;48.080;8.362;2022-12-13T05:03:04;42.47;;;18.20;;
38843;SDS011;24596;48.080;8.362;2022-12-13T05:05:30;32.23;;;12.57;;
38843;SDS011;24596;48.080;8.362;2022-12-13T05:07:55;31.37;;;12.80;;
38843;SDS011;24596;48.080;8.362;2022-12-13T05:10:20;35.23;;;14.97;;
38843;SDS011;24596;48.080;8.362;2022-12-13T05:12:46;35.67;;;14.00;;
38843;SDS011;24596;48.080;8.362;2022-12-13T05:15:11;31.10;;;10.83;;
38843;SDS011;24596;48.080;8.362;2022-12-13T05:17:36;47.53;;;21.47;;
38843;SDS011;24596;48.080;8.362;2022-12-13T05:20:02;38.83;;;15.47;;
38843;SDS011;24596;48.080;8.362;2022-12-13T05:22:27;42.73;;;15.03;;
38843;SDS011;24596;48.080;8.362;2022-12-13T05:24:53;53.27;;;20.03;;
38843;SDS011;24596;48.080;8.362;2022-12-13T05:27:18;64.97;;;22.20;;
38843;SDS011;24596;48.080;8.362;2022-12-13T05:29:43;53.97;;;19.17;;
38843;SDS011;24596;48.080;8.362;2022-12-13T05:32:08;60.00;;;19.77;;
38843;SDS011;24596;48.080;8.362;2022-12-13T05:34:34;55.37;;;22.40;;
38843;SDS011;24596;48.080;8.362;2022-12-13T05:36:59;39.03;;;15.20;;
38843;SDS011;24596;48.080;8.362;2022-12-13T05:39:24;36.27;;;16.47;;
38843;SDS011;24596;48.080;8.362;2022-12-13T05:41:49;40.23;;;16.80;;
38843;SDS011;24596;48.080;8.362;2022-12-13T05:44:15;27.40;;;12.20;;
38843;SDS011;24596;48.080;8.362;2022-12-13T05:46:40;46.60;;;20.33;;
38843;SDS011;24596;48.080;8.362;2022-12-13T05:49:05;48.33;;;18.27;;
38843;SDS011;24596;48.080;8.362;2022-12-13T05:51:30;36.60;;;14.53;;
38843;SDS011;24596;48.080;8.362;2022-12-13T05:53:56;31.97;;;13.57;;
38843;SDS011;24596;48.080;8.362;2022-12-13T05:56:21;20.53;;;8.60;;
38843;SDS011;24596;48.080;8.362;2022-12-13T05:58:46;28.07;;;10.67;;
38843;SDS011;24596;48.080;8.362;2022-12-13T06:01:12;28.27;;;11.70;;
38843;SDS011;24596;48.080;8.362;2022-12-13T06:03:38;19.87;;;9.47;;
38843;SDS011;24596;48.080;8.362;2022-12-13T06:06:04;28.47;;;11.93;;
38843;SDS011;24596;48.080;8.362;2022-12-13T06:08:30;24.30;;;12.80;;
38843;SDS011;24596;48.080;8.362;2022-12-13T06:10:56;34.70;;;21.10;;
38843;SDS011;24596;48.080;8.362;2022-12-13T06:13:21;28.40;;;15.43;;
38843;SDS011;24596;48.080;8.362;2022-12-13T06:15:46;24.50;;;14.17;;
38843;SDS011;24596;48.080;8.362;2022-12-13T06:18:12;19.40;;;10.77;;
38843;SDS011;24596;48.080;8.362;2022-12-13T06:20:37;18.90;;;10.30;;
38843;SDS011;24596;48.080;8.362;2022-12-13T06:23:02;28.90;;;14.97;;
38843;SDS011;24596;48.080;8.362;2022-12-13T06:25:28;23.97;;;13.50;;
38843;SDS011;24596;48.080;8.362;2022-12-13T06:27:53;20.53;;;10.83;;
38843;SDS011;24596;48.080;8.362;2022-12-13T06:30:18;21.30;;;9.93;;
38843;SDS011;24596;48.080;8.362;2022-12-13T06:32:46;19.30;;;9.50;;
38843;SDS011;24596;48.080;8.362;2022-12-13T06:35:11;17.20;;;8.60;;
38843;SDS011;24596;48.080;8.362;2022-12-13T06:37:37;24.07;;;9.27;;
38843;SDS011;24596;48.080;8.362;2022-12-13T06:40:02;22.90;;;11.97;;
38843;SDS011;24596;48.080;8.362;2022-12-13T06:42:27;22.00;;;10.50;;
38843;SDS011;24596;48.080;8.362;2022-12-13T06:44:53;15.37;;;8.03;;
38843;SDS011;24596;48.080;8.362;2022-12-13T06:47:18;12.60;;;5.97;;
38843;SDS011;24596;48.080;8.362;2022-12-13T06:49:43;15.87;;;8.27;;
38843;SDS011;24596;48.080;8.362;2022-12-13T06:52:09;19.23;;;8.17;;
38843;SDS011;24596;48.080;8.362;2022-12-13T06:54:36;15.83;;;7.20;;
38843;SDS011;24596;48.080;8.362;2022-12-13T06:57:01;15.70;;;7.23;;
38843;SDS011;24596;48.080;8.362;2022-12-13T06:59:26;24.63;;;11.13;;
38843;SDS011;24596;48.080;8.362;2022-12-13T07:01:52;84.87;;;27.57;;
38843;SDS011;24596;48.080;8.362;2022-12-13T07:04:17;59.13;;;22.20;;
38843;SDS011;24596;48.080;8.362;2022-12-13T07:06:42;70.03;;;26.30;;
38843;SDS011;24596;48.080;8.362;2022-12-13T07:09:07;55.73;;;21.07;;
38843;SDS011;24596;48.080;8.362;2022-12-13T07:11:32;32.93;;;13.63;;
38843;SDS011;24596;48.080;8.362;2022-12-13T07:13:58;27.67;;;11.87;;
38843;SDS011;24596;48.080;8.362;2022-12-13T07:16:24;25.30;;;11.00;;
38843;SDS011;24596;48.080;8.362;2022-12-13T07:18:52;28.37;;;11.43;;
38843;SDS011;24596;48.080;8.362;2022-12-13T07:21:17;23.60;;;12.40;;
38843;SDS011;24596;48.080;8.362;2022-12-13T07:23:43;20.50;;;9.47;;
38843;SDS011;24596;48.080;8.362;2022-12-13T07:26:08;22.00;;;9.23;;
38843;SDS011;24596;48.080;8.362;2022-12-13T07:28:34;21.43;;;9.73;;
38843;SDS011;24596;48.080;8.362;2022-12-13T07:31:00;20.73;;;8.67;;
38843;SDS011;24596;48.080;8.362;2022-12-13T07:33:26;17.50;;;7.67;;
38843;SDS011;24596;48.080;8.362;2022-12-13T07:35:58;19.77;;;8.43;;
38843;SDS011;24596;48.080;8.362;2022-12-13T07:38:23;15.43;;;7.30;;
38843;SDS011;24596;48.080;8.362;2022-12-13T07:40:49;24.53;;;11.13;;
38843;SDS011;24596;48.080;8.362;2022-12-13T07:43:14;28.63;;;10.17;;
38843;SDS011;24596;48.080;8.362;2022-12-13T07:45:39;17.07;;;7.63;;
38843;SDS011;24596;48.080;8.362;2022-12-13T07:48:05;22.70;;;9.00;;
38843;SDS011;24596;48.080;8.362;2022-12-13T07:50:31;18.70;;;7.67;;
38843;SDS011;24596;48.080;8.362;2022-12-13T07:52:56;32.20;;;14.10;;
38843;SDS011;24596;48.080;8.362;2022-12-13T07:55:21;23.93;;;10.97;;
38843;SDS011;24596;48.080;8.362;2022-12-13T07:57:46;16.50;;;8.40;;
38843;SDS011;24596;48.080;8.362;2022-12-13T08:00:12;23.40;;;9.43;;
38843;SDS011;24596;48.080;8.362;2022-12-13T08:02:38;51.80;;;28.20;;
38843;SDS011;24596;48.080;8.362;2022-12-13T08:05:03;30.43;;;14.97;;
38843;SDS011;24596;48.080;8.362;2022-12-13T08:07:29;43.07;;;22.80;;
38843;SDS011;24596;48.080;8.362;2022-12-13T08:09:54;46.03;;;27.00;;
38843;SDS011;24596;48.080;8.362;2022-12-13T08:12:20;41.73;;;22.57;;
38843;SDS011;24596;48.080;8.362;2022-12-13T08:14:45;35.67;;;17.37;;
38843;SDS011;24596;48.080;8.362;2022-12-13T08:17:10;33.63;;;15.00;;
38843;SDS011;24596;48.080;8.362;2022-12-13T08:19:35;21.80;;;10.57;;
38843;SDS011;24596;48.080;8.362;2022-12-13T08:22:00;23.93;;;10.73;;
38843;SDS011;24596;48.080;8.362;2022-12-13T08:24:27;25.23;;;12.77;;
38843;SDS011;24596;48.080;8.362;2022-12-13T08:26:53;20.10;;;10.80;;
38843;SDS011;24596;48.080;8.362;2022-12-13T08:29:19;19.80;;;8.60;;
38843;SDS011;24596;48.080;8.362;2022-12-13T08:31:44;16.90;;;7.73;;
38843;SDS011;24596;48.080;8.362;2022-12-13T08:34:09;21.27;;;9.90;;
38843;SDS011;24596;48.080;8.362;2022-12-13T08:36:34;13.43;;;7.17;;
38843;SDS011;24596;48.080;8.362;2022-12-13T08:38:59;20.97;;;9.27;;
38843;SDS011;24596;48.080;8.362;2022-12-13T08:41:27;16.77;;;9.20;;
38843;SDS011;24596;48.080;8.362;2022-12-13T08:43:52;16.57;;;8.30;;
38843;SDS011;24596;48.080;8.362;2022-12-13T08:46:17;16.60;;;6.63;;
38843;SDS011;24596;48.080;8.362;2022-12-13T08:48:42;18.17;;;8.20;;
38843;SDS011;24596;48.080;8.362;2022-12-13T08:51:08;17.67;;;7.10;;
38843;SDS011;24596;48.080;8.362;2022-12-13T08:53:35;22.33;;;8.87;;
38843;SDS011;24596;48.080;8.362;2022-12-13T08:56:01;20.83;;;8.03;;
38843;SDS011;24596;48.080;8.362;2022-12-13T08:58:27;25.70;;;10.00;;
38843;SDS011;24596;48.080;8.362;2022-12-13T09:00:52;19.43;;;8.07;;
38843;SDS011;24596;48.080;8.362;2022-12-13T09:03:17;21.63;;;8.93;;
38843;SDS011;24596;48.080;8.362;2022-12-13T09:05:42;22.67;;;8.30;;
38843;SDS011;24596;48.080;8.362;2022-12-13T09:08:07;25.77;;;9.80;;
38843;SDS011;24596;48.080;8.362;2022-12-13T09:10:33;23.07;;;9.87;;
38843;SDS011;24596;48.080;8.362;2022-12-13T09:12:58;24.43;;;10.50;;
38843;SDS011;24596;48.080;8.362;2022-12-13T09:15:25;26.83;;;11.40;;
38843;SDS011;24596;48.080;8.362;2022-12-13T09:17:50;21.90;;;9.07;;
38843;SDS011;24596;48.080;8.362;2022-12-13T09:20:16;21.27;;;9.53;;
38843;SDS011;24596;48.080;8.362;2022-12-13T09:22:41;22.33;;;8.63;;
38843;SDS011;24596;48.080;8.362;2022-12-13T09:25:07;21.07;;;9.23;;
38843;SDS011;24596;48.080;8.362;2022-12-13T09:27:33;31.67;;;13.27;;
38843;SDS011;24596;48.080;8.362;2022-12-13T09:29:58;28.40;;;12.07;;
38843;SDS011;24596;48.080;8.362;2022-12-13T09:32:24;23.70;;;11.43;;
38843;SDS011;24596;48.080;8.362;2022-12-13T09:34:49;23.27;;;11.80;;
38843;SDS011;24596;48.080;8.362;2022-12-13T09:37:15;27.37;;;11.53;;
38843;SDS011;24596;48.080;8.362;2022-12-13T09:39:40;23.87;;;11.17;;
38843;SDS011;24596;48.080;8.362;2022-12-13T09:42:08;21.03;;;10.33;;
38843;SDS011;24596;48.080;8.362;2022-12-13T09:44:39;21.73;;;10.97;;
38843;SDS011;24596;48.080;8.362;2022-12-13T09:47:11;22.37;;;11.20;;
38843;SDS011;24596;48.080;8.362;2022-12-13T09:49:38;26.43;;;12.00;;
38843;SDS011;24596;48.080;8.362;2022-12-13T09:52:05;27.47;;;11.43;;
38843;SDS011;24596;48.080;8.362;2022-12-13T09:54:31;23.13;;;11.73;;
38843;SDS011;24596;48.080;8.362;2022-12-13T09:56:57;23.00;;;10.77;;
38843;SDS011;24596;48.080;8.362;2022-12-13T09:59:30;27.83;;;11.40;;
38843;SDS011;24596;48.080;8.362;2022-12-13T10:01:56;22.38;;;10.50;;
38843;SDS011;24596;48.080;8.362;2022-12-13T10:04:26;22.17;;;9.48;;
38843;SDS011;24596;48.080;8.362;2022-12-13T10:06:52;22.30;;;12.68;;
38843;SDS011;24596;48.080;8.362;2022-12-13T10:09:18;21.77;;;10.68;;
38843;SDS011;24596;48.080;8.362;2022-12-13T10:11:47;21.60;;;9.63;;
38843;SDS011;24596;48.080;8.362;2022-12-13T10:14:15;21.65;;;9.55;;
38843;SDS011;24596;48.080;8.362;2022-12-13T10:16:41;22.83;;;9.63;;
38843;SDS011;24596;48.080;8.362;2022-12-13T10:19:15;19.20;;;10.27;;
38843;SDS011;24596;48.080;8.362;2022-12-13T10:21:42;19.50;;;9.55;;
38843;SDS011;24596;48.080;8.362;2022-12-13T10:24:18;20.50;;;10.52;;
38843;SDS011;24596;48.080;8.362;2022-12-13T10:26:43;24.08;;;10.27;;
38843;SDS011;24596;48.080;8.362;2022-12-13T10:29:09;23.38;;;12.02;;
38843;SDS011;24596;48.080;8.362;2022-12-13T10:31:41;23.17;;;12.23;;
38843;SDS011;24596;48.080;8.362;2022-12-13T10:34:13;22.00;;;11.55;;
38843;SDS011;24596;48.080;8.362;2022-12-13T10:36:40;20.27;;;11.50;;
38843;SDS011;24596;48.080;8.362;2022-12-13T10:39:07;24.90;;;12.85;;
38843;SDS011;24596;48.080;8.362;2022-12-13T10:41:38;18.25;;;9.90;;
38843;SDS011;24596;48.080;8.362;2022-12-13T10:46:32;16.35;;;8.27;;
38843;SDS011;24596;48.080;8.362;2022-12-13T10:48:57;17.42;;;8.43;;
38843;SDS011;24596;48.080;8.362;2022-12-13T10:51:23;16.75;;;7.40;;
38843;SDS011;24596;48.080;8.362;2022-12-13T10:53:52;14.65;;;6.20;;
38843;SDS011;24596;48.080;8.362;2022-12-13T10:56:19;11.80;;;6.20;;
38843;SDS011;24596;48.080;8.362;2022-12-13T10:58:45;10.50;;;5.43;;
38843;SDS011;24596;48.080;8.362;2022-12-13T11:03:42;13.00;;;6.20;;
38843;SDS011;24596;48.080;8.362;2022-12-13T11:06:19;11.20;;;4.88;;
38843;SDS011;24596;48.080;8.362;2022-12-13T11:08:44;12.18;;;5.32;;
38843;SDS011;24596;48.080;8.362;2022-12-13T11:11:09;16.63;;;5.07;;
38843;SDS011;24596;48.080;8.362;2022-12-13T11:13:46;11.15;;;4.85;;
38843;SDS011;24596;48.080;8.362;2022-12-13T11:16:25;12.10;;;5.88;;
38843;SDS011;24596;48.080;8.362;2022-12-13T11:18:55;12.40;;;5.18;;
38843;SDS011;24596;48.080;8.362;2022-12-13T11:21:24;9.68;;;4.72;;
38843;SDS011;24596;48.080;8.362;2022-12-13T11:23:50;10.93;;;5.22;;
38843;SDS011;24596;48.080;8.362;2022-12-13T11:26:17;14.95;;;5.95;;
38843;SDS011;24596;48.080;8.362;2022-12-13T11:28:49;10.68;;;5.40;;
38843;SDS011;24596;48.080;8.362;2022-12-13T11:41:41;12.50;;;6.17;;
38843;SDS011;24596;48.080;8.362;2022-12-13T11:44:16;13.82;;;6.25;;
38843;SDS011;24596;48.080;8.362;2022-12-13T11:46:44;12.33;;;6.17;;
38843;SDS011;24596;48.080;8.362;2022-12-13T11:49:14;13.60;;;5.85;;
38843;SDS011;24596;48.080;8.362;2022-12-13T11:51:43;9.07;;;4.03;;
38843;SDS011;24596;48.080;8.362;2022-12-13T11:54:32;10.85;;;5.25;;
38843;SDS011;24596;48.080;8.362;2022-12-13T11:56:58;13.05;;;5.72;;
38843;SDS011;24596;48.080;8.362;2022-12-13T11:59:33;11.73;;;5.65;;
38843;SDS011;24596;48.080;8.362;2022-12-13T12:02:03;12.40;;;5.65;;
38843;SDS011;24596;48.080;8.362;2022-12-13T12:04:38;11.90;;;4.95;;
38843;SDS011;24596;48.080;8.362;2022-12-13T12:07:13;11.98;;;6.38;;
38843;SDS011;24596;48.080;8.362;2022-12-13T12:09:42;16.25;;;8.77;;
38843;SDS011;24596;48.080;8.362;2022-12-13T12:12:13;13.05;;;6.40;;
38843;SDS011;24596;48.080;8.362;2022-12-13T12:14:53;10.98;;;5.30;;
38843;SDS011;24596;48.080;8.362;2022-12-13T12:17:21;11.77;;;5.90;;
38843;SDS011;24596;48.080;8.362;2022-12-13T12:19:48;12.13;;;5.03;;
38843;SDS011;24596;48.080;8.362;2022-12-13T12:24:55;10.25;;;5.25;;
38843;SDS011;24596;48.080;8.362;2022-12-13T12:40:28;12.80;;;5.28;;
38843;SDS011;24596;48.080;8.362;2022-12-13T12:43:01;11.45;;;5.30;;
38843;SDS011;24596;48.080;8.362;2022-12-13T12:45:41;11.25;;;5.57;;
38843;SDS011;24596;48.080;8.362;2022-12-13T12:48:27;11.05;;;5.30;;
38843;SDS011;24596;48.080;8.362;2022-12-13T12:51:01;14.45;;;6.30;;
38843;SDS011;24596;48.080;8.362;2022-12-13T13:03:35;11.48;;;5.78;;
38843;SDS011;24596;48.080;8.362;2022-12-13T13:06:22;11.80;;;5.28;;
38843;SDS011;24596;48.080;8.362;2022-12-13T13:11:14;9.07;;;4.72;;
38843;SDS011;24596;48.080;8.362;2022-12-13T13:19:00;10.40;;;4.90;;
38843;SDS011;24596;48.080;8.362;2022-12-13T13:34:28;11.02;;;4.75;;
38843;SDS011;24596;48.080;8.362;2022-12-13T13:36:54;9.40;;;4.93;;
38843;SDS011;24596;48.080;8.362;2022-12-13T13:44:52;10.45;;;4.40;;
38843;SDS011;24596;48.080;8.362;2022-12-13T13:52:35;9.45;;;4.95;;
38843;SDS011;24596;48.080;8.362;2022-12-13T14:02:51;12.05;;;6.05;;
38843;SDS011;24596;48.080;8.362;2022-12-13T14:25:45;22.30;;;11.80;;
38843;SDS011;24596;48.080;8.362;2022-12-13T14:28:32;48.88;;;22.45;;
38843;SDS011;24596;48.080;8.362;2022-12-13T14:31:01;38.17;;;17.38;;
38843;SDS011;24596;48.080;8.362;2022-12-13T14:33:27;32.78;;;15.98;;
38843;SDS011;24596;48.080;8.362;2022-12-13T14:35:54;29.13;;;13.18;;
38843;SDS011;24596;48.080;8.362;2022-12-13T14:38:20;37.75;;;23.60;;
38843;SDS011;24596;48.080;8.362;2022-12-13T14:40:47;25.70;;;14.63;;
38843;SDS011;24596;48.080;8.362;2022-12-13T14:43:29;28.77;;;13.00;;
38843;SDS011;24596;48.080;8.362;2022-12-13T14:45:56;18.95;;;9.20;;
38843;SDS011;24596;48.080;8.362;2022-12-13T14:48:22;20.58;;;9.65;;
38843;SDS011;24596;48.080;8.362;2022-12-13T14:50:48;20.23;;;10.43;;
38843;SDS011;24596;48.080;8.362;2022-12-13T14:53:23;25.23;;;12.18;;
38843;SDS011;24596;48.080;8.362;2022-12-13T14:56:08;21.60;;;9.85;;
38843;SDS011;24596;48.080;8.362;2022-12-13T14:58:34;25.27;;;11.60;;
38843;SDS011;24596;48.080;8.362;2022-12-13T15:01:21;22.50;;;11.75;;
38843;SDS011;24596;48.080;8.362;2022-12-13T15:03:48;19.52;;;10.23;;
38843;SDS011;24596;48.080;8.362;2022-12-13T15:06:13;20.50;;;9.38;;
38843;SDS011;24596;48.080;8.362;2022-12-13T15:08:38;17.65;;;9.38;;
38843;SDS011;24596;48.080;8.362;2022-12-13T15:11:07;18.92;;;8.80;;
38843;SDS011;24596;48.080;8.362;2022-12-13T15:15:59;19.80;;;9.70;;
38843;SDS011;24596;48.080;8.362;2022-12-13T15:18:25;22.30;;;12.70;;
38843;SDS011;24596;48.080;8.362;2022-12-13T15:20:52;26.45;;;11.80;;
38843;SDS011;24596;48.080;8.362;2022-12-13T15:25:42;22.63;;;11.10;;
38843;SDS011;24596;48.080;8.362;2022-12-13T15:28:11;21.58;;;11.45;;
38843;SDS011;24596;48.080;8.362;2022-12-13T15:30:37;27.70;;;12.65;;
38843;SDS011;24596;48.080;8.362;2022-12-13T15:33:07;20.67;;;9.93;;
38843;SDS011;24596;48.080;8.362;2022-12-13T15:35:43;29.50;;;12.35;;
38843;SDS011;24596;48.080;8.362;2022-12-13T15:38:12;40.70;;;18.90;;
38843;SDS011;24596;48.080;8.362;2022-12-13T15:40:45;30.27;;;13.85;;
38843;SDS011;24596;48.080;8.362;2022-12-13T15:43:15;23.88;;;11.88;;
38843;SDS011;24596;48.080;8.362;2022-12-13T15:45:43;24.30;;;12.88;;
38843;SDS011;24596;48.080;8.362;2022-12-13T15:48:15;25.45;;;12.45;;
38843;SDS011;24596;48.080;8.362;2022-12-13T15:50:41;25.42;;;13.35;;
38843;SDS011;24596;48.080;8.362;2022-12-13T15:56:25;35.05;;;17.65;;
38843;SDS011;24596;48.080;8.362;2022-12-13T15:58:51;43.83;;;21.40;;
38843;SDS011;24596;48.080;8.362;2022-12-13T16:01:26;43.35;;;19.77;;
38843;SDS011;24596;48.080;8.362;2022-12-13T16:03:52;41.42;;;19.00;;
38843;SDS011;24596;48.080;8.362;2022-12-13T16:06:18;37.13;;;16.35;;
38843;SDS011;24596;48.080;8.362;2022-12-13T16:08:47;47.05;;;21.65;;
38843;SDS011;24596;48.080;8.362;2022-12-13T16:11:14;33.40;;;17.40;;
38843;SDS011;24596;48.080;8.362;2022-12-13T16:13:39;43.50;;;16.40;;
38843;SDS011;24596;48.080;8.362;2022-12-13T16:18:40;110.97;;;61.15;;
38843;SDS011;24596;48.080;8.362;2022-12-13T16:21:07;51.85;;;25.08;;
38843;SDS011;24596;48.080;8.362;2022-12-13T16:23:32;43.78;;;22.77;;
38843;SDS011;24596;48.080;8.362;2022-12-13T16:25:58;34.10;;;17.33;;
38843;SDS011;24596;48.080;8.362;2022-12-13T16:28:23;23.77;;;13.13;;
38843;SDS011;24596;48.080;8.362;2022-12-13T16:33:17;35.85;;;16.83;;
38843;SDS011;24596;48.080;8.362;2022-12-13T16:35:42;42.28;;;21.98;;
38843;SDS011;24596;48.080;8.362;2022-12-13T16:38:11;36.22;;;19.48;;
38843;SDS011;24596;48.080;8.362;2022-12-13T16:40:37;37.38;;;21.20;;